createdAt,value
2018-12-22T00:00:22.753Z,7.08
2018-12-22T00:02:51.099Z,7.42
2018-12-22T00:05:19.472Z,7.87
2018-12-22T00:07:47.871Z,8.68
2018-12-22T00:10:16.233Z,7.87
2018-12-22T00:12:44.690Z,10.08
2018-12-22T00:15:13.155Z,8.33
2018-12-22T00:17:41.812Z,11.28
2018-12-22T00:20:10.183Z,8.63
2018-12-22T00:22:38.592Z,12.55
2018-12-22T00:25:06.941Z,8.88
2018-12-22T00:27:35.520Z,7.45
2018-12-22T00:30:04.695Z,9.15
2018-12-22T00:32:33.187Z,11.75
2018-12-22T00:35:01.542Z,9.18
2018-12-22T00:37:29.930Z,7.37
2018-12-22T00:39:58.431Z,9.58
2018-12-22T00:42:26.785Z,8.83
2018-12-22T00:44:55.172Z,7.45
2018-12-22T00:47:23.565Z,9.08
2018-12-22T00:49:52.095Z,8.13
2018-12-22T00:52:20.474Z,8.25
2018-12-22T00:54:49.006Z,9.15
2018-12-22T00:57:17.438Z,7.22
2018-12-22T00:59:46.085Z,6.92
2018-12-22T01:02:14.557Z,7.70
2018-12-22T01:04:42.922Z,8.80
2018-12-22T01:07:11.570Z,9.60
2018-12-22T01:09:39.932Z,6.30
2018-12-22T01:12:08.287Z,8.25
2018-12-22T01:14:36.719Z,12.05
2018-12-22T01:17:05.073Z,7.80
2018-12-22T01:19:33.422Z,7.35
2018-12-22T01:22:01.808Z,5.85
2018-12-22T01:24:30.218Z,6.97
2018-12-22T01:26:58.575Z,7.58
2018-12-22T01:29:27.111Z,6.97
2018-12-22T01:31:55.691Z,5.90
2018-12-22T01:34:24.047Z,7.17
2018-12-22T01:36:52.438Z,5.75
2018-12-22T01:39:20.796Z,6.75
2018-12-22T01:41:49.150Z,8.73
2018-12-22T01:44:17.823Z,6.58
2018-12-22T01:46:46.283Z,5.92
2018-12-22T01:49:14.652Z,8.60
2018-12-22T01:51:43.156Z,9.05
2018-12-22T01:54:11.509Z,7.25
2018-12-22T01:56:39.866Z,6.00
2018-12-22T01:59:08.285Z,7.90
2018-12-22T02:01:36.645Z,5.83
2018-12-22T02:04:05.027Z,8.10
2018-12-22T02:06:33.872Z,5.75
2018-12-22T02:09:02.635Z,7.78
2018-12-22T02:11:31.255Z,8.20
2018-12-22T02:13:59.651Z,10.25
2018-12-22T02:16:28.010Z,6.65
2018-12-22T02:18:56.687Z,5.28
2018-12-22T02:21:25.080Z,5.72
2018-12-22T02:23:53.539Z,7.58
2018-12-22T02:26:22.008Z,7.03
2018-12-22T02:28:56.589Z,5.92
2018-12-22T02:31:20.746Z,5.65
2018-12-22T02:33:49.107Z,7.60
2018-12-22T02:36:17.501Z,6.15
2018-12-22T02:38:45.848Z,6.00
2018-12-22T02:41:14.228Z,5.67
2018-12-22T02:43:42.618Z,7.97
2018-12-22T02:46:10.993Z,5.10
2018-12-22T02:48:39.358Z,8.10
2018-12-22T02:51:07.867Z,4.58
2018-12-22T02:53:36.375Z,5.05
2018-12-22T02:56:04.739Z,5.03
2018-12-22T02:58:33.463Z,5.58
2018-12-22T03:01:01.848Z,6.47
2018-12-22T03:03:30.619Z,6.35
2018-12-22T03:05:59.460Z,9.78
2018-12-22T03:08:28.009Z,5.85
2018-12-22T03:10:56.372Z,7.55
2018-12-22T03:13:24.798Z,6.55
2018-12-22T03:15:53.156Z,5.25
2018-12-22T03:18:21.539Z,7.30
2018-12-22T03:20:50.132Z,7.95
2018-12-22T03:23:18.476Z,5.40
2018-12-22T03:25:46.839Z,6.97
2018-12-22T03:28:15.223Z,5.15
2018-12-22T03:30:43.589Z,4.92
2018-12-22T03:33:11.984Z,7.05
2018-12-22T03:35:40.384Z,4.70
2018-12-22T03:38:08.903Z,5.55
2018-12-22T03:40:37.379Z,4.50
2018-12-22T03:43:06.002Z,5.60
2018-12-22T03:45:34.559Z,3.05
2018-12-22T03:48:02.913Z,3.30
2018-12-22T03:50:31.282Z,3.55
2018-12-22T03:52:59.732Z,4.40
2018-12-22T03:55:28.129Z,5.65
2018-12-22T03:57:56.600Z,3.40
2018-12-22T04:00:24.961Z,4.70
2018-12-22T04:02:53.316Z,2.75
2018-12-22T04:05:21.697Z,4.00
2018-12-22T04:07:50.075Z,4.50
2018-12-22T04:10:18.441Z,4.53
2018-12-22T04:12:46.863Z,4.17
2018-12-22T04:15:15.766Z,3.90
2018-12-22T04:17:44.243Z,3.35
2018-12-22T04:20:12.609Z,3.52
2018-12-22T04:22:40.956Z,3.10
2018-12-22T04:25:09.342Z,3.33
2018-12-22T04:27:38.137Z,3.40
2018-12-22T04:30:06.607Z,2.90
2018-12-22T04:32:35.078Z,3.10
2018-12-22T04:35:03.876Z,3.17
2018-12-22T04:37:32.241Z,1.90
2018-12-22T04:40:00.598Z,2.95
2018-12-22T04:42:28.986Z,3.52
2018-12-22T04:44:57.342Z,2.95
2018-12-22T04:47:25.698Z,3.12
2018-12-22T04:49:54.081Z,2.95
2018-12-22T04:52:22.458Z,4.30
2018-12-22T04:54:50.839Z,3.75
2018-12-22T04:57:19.539Z,2.62
2018-12-22T04:59:48.106Z,4.17
2018-12-22T05:02:16.455Z,2.47
2018-12-22T05:04:44.846Z,3.87
2018-12-22T05:07:13.195Z,4.60
2018-12-22T05:09:41.547Z,4.30
2018-12-22T05:12:09.931Z,2.77
2018-12-22T05:14:38.285Z,6.20
2018-12-22T05:17:06.645Z,4.80
2018-12-22T05:19:35.234Z,3.20
2018-12-22T05:22:03.614Z,3.80
2018-12-22T05:24:31.970Z,4.95
2018-12-22T05:27:00.957Z,3.40
2018-12-22T05:29:29.316Z,4.80
2018-12-22T05:31:57.670Z,3.62
2018-12-22T05:34:26.080Z,2.92
2018-12-22T05:36:54.440Z,4.50
2018-12-22T05:39:22.800Z,2.62
2018-12-22T05:41:51.186Z,4.45
2018-12-22T05:44:19.534Z,5.45
2018-12-22T05:46:47.886Z,2.72
2018-12-22T05:49:16.279Z,3.95
2018-12-22T05:51:44.753Z,4.05
2018-12-22T05:54:13.410Z,3.08
2018-12-22T05:56:41.814Z,2.90
2018-12-22T05:59:10.165Z,2.10
2018-12-22T06:01:38.634Z,1.60
2018-12-22T06:04:07.000Z,1.60
2018-12-22T06:06:35.342Z,1.77
2018-12-22T06:09:05.517Z,2.62
2018-12-22T06:11:33.892Z,3.10
2018-12-22T06:14:02.445Z,2.15
2018-12-22T06:16:30.794Z,3.67
2018-12-22T06:18:59.160Z,4.30
2018-12-22T06:21:27.736Z,4.65
2018-12-22T06:23:56.093Z,3.10
2018-12-22T06:26:24.753Z,2.20
2018-12-22T06:28:53.105Z,1.85
2018-12-22T06:31:22.434Z,1.77
2018-12-22T06:33:51.613Z,1.67
2018-12-22T06:36:20.238Z,1.27
2018-12-22T06:38:48.579Z,1.60
2018-12-22T06:41:16.940Z,0.90
2018-12-22T06:43:45.279Z,0.60
2018-12-22T06:46:13.624Z,0.80
2018-12-22T06:48:41.995Z,0.40
2018-12-22T06:51:10.346Z,0.40
2018-12-22T06:53:38.839Z,0.50
2018-12-22T06:56:07.296Z,0.60
2018-12-22T06:58:35.938Z,0.55
2018-12-22T07:01:04.375Z,1.05
2018-12-22T07:03:33.009Z,0.98
2018-12-22T07:06:01.668Z,0.90
2018-12-22T07:08:30.432Z,1.12
2018-12-22T07:10:58.819Z,1.00
2018-12-22T07:13:27.167Z,1.80
2018-12-22T07:15:55.528Z,1.10
2018-12-22T07:18:23.982Z,1.20
2018-12-22T07:20:52.638Z,2.85
2018-12-22T07:23:21.244Z,1.65
2018-12-22T07:25:49.620Z,2.67
2018-12-22T07:28:18.232Z,2.20
2018-12-22T07:30:46.707Z,2.02
2018-12-22T07:33:15.329Z,3.00
2018-12-22T07:35:43.705Z,2.80
2018-12-22T07:38:12.067Z,4.50
2018-12-22T07:40:40.443Z,2.50
2018-12-22T07:43:09.048Z,3.33
2018-12-22T07:45:37.475Z,3.40
2018-12-22T07:48:06.319Z,3.83
2018-12-22T07:50:34.680Z,4.15
2018-12-22T07:53:03.477Z,3.98
2018-12-22T07:55:32.111Z,2.90
2018-12-22T07:58:00.755Z,3.98
2018-12-22T08:00:34.831Z,4.40
2018-12-22T08:02:59.594Z,3.70
2018-12-22T08:05:28.303Z,3.60
2018-12-22T08:07:56.690Z,3.52
2018-12-22T08:10:25.138Z,4.80
2018-12-22T08:12:53.529Z,4.05
2018-12-22T08:15:21.888Z,6.12
2018-12-22T08:17:50.553Z,5.37
2018-12-22T08:20:18.946Z,2.45
2018-12-22T08:22:47.320Z,3.80
2018-12-22T08:25:15.708Z,3.65
2018-12-22T08:27:44.102Z,5.87
2018-12-22T08:30:12.493Z,5.05
2018-12-22T08:32:40.891Z,4.65
2018-12-22T08:35:09.261Z,4.30
2018-12-22T08:37:37.893Z,6.37
2018-12-22T08:40:07.874Z,5.00
2018-12-22T08:42:36.247Z,3.22
2018-12-22T08:45:05.665Z,4.25
2018-12-22T08:47:34.061Z,4.58
2018-12-22T08:50:09.118Z,4.85
2018-12-22T08:52:32.847Z,4.55
2018-12-22T08:55:01.230Z,3.90
2018-12-22T08:57:29.629Z,4.35
2018-12-22T08:59:58.006Z,4.12
2018-12-22T09:02:26.424Z,4.47
2018-12-22T09:04:54.999Z,3.83
2018-12-22T09:07:23.367Z,3.17
2018-12-22T09:09:51.761Z,4.15
2018-12-22T09:12:20.208Z,3.83
2018-12-22T09:14:48.756Z,3.60
2018-12-22T09:17:17.159Z,4.80
2018-12-22T09:19:45.522Z,2.63
2018-12-22T09:22:14.006Z,5.25
2018-12-22T09:24:42.392Z,2.75
2018-12-22T09:27:10.949Z,3.40
2018-12-22T09:29:39.662Z,4.17
2018-12-22T09:32:08.063Z,3.72
2018-12-22T09:34:36.492Z,3.33
2018-12-22T09:37:06.838Z,3.52
2018-12-22T09:39:35.528Z,3.67
2018-12-22T09:42:03.923Z,4.47
2018-12-22T09:44:32.300Z,4.20
2018-12-22T09:47:00.866Z,3.22
2018-12-22T09:49:29.241Z,3.70
2018-12-22T09:51:57.891Z,4.75
2018-12-22T09:54:26.297Z,3.17
2018-12-22T09:56:54.944Z,2.47
2018-12-22T09:59:23.344Z,3.60
2018-12-22T10:01:52.008Z,2.65
2018-12-22T10:04:20.445Z,5.70
2018-12-22T10:06:49.025Z,2.42
2018-12-22T10:09:17.396Z,3.67
2018-12-22T10:11:45.743Z,3.35
2018-12-22T10:14:14.507Z,3.35
2018-12-22T10:16:42.940Z,3.03
2018-12-22T10:19:11.298Z,3.30
2018-12-22T10:21:39.699Z,3.40
2018-12-22T10:24:08.405Z,5.03
2018-12-22T10:26:36.745Z,2.90
2018-12-22T10:29:05.723Z,3.30
2018-12-22T10:31:34.120Z,3.12
2018-12-22T10:34:02.792Z,4.17
2018-12-22T10:36:31.178Z,3.83
2018-12-22T10:38:59.574Z,4.03
2018-12-22T10:41:27.945Z,3.50
2018-12-22T10:43:56.652Z,4.42
2018-12-22T10:46:25.075Z,3.33
2018-12-22T10:48:53.653Z,4.12
2018-12-22T10:51:24.322Z,4.43
2018-12-22T10:53:52.642Z,3.90
2018-12-22T10:56:21.029Z,3.00
2018-12-22T10:58:49.600Z,2.90
2018-12-22T11:01:26.168Z,4.40
2018-12-22T11:03:48.581Z,4.33
2018-12-22T11:06:16.986Z,3.25
2018-12-22T11:08:45.531Z,4.20
2018-12-22T11:11:13.895Z,3.73
2018-12-22T11:13:42.263Z,3.70
2018-12-22T11:16:10.663Z,2.62
2018-12-22T11:18:39.019Z,3.52
2018-12-22T11:21:07.389Z,2.90
2018-12-22T11:23:35.782Z,3.40
2018-12-22T11:26:04.163Z,3.12
2018-12-22T11:28:32.537Z,3.10
2018-12-22T11:31:01.023Z,4.00
2018-12-22T11:33:29.400Z,3.03
2018-12-22T11:35:57.777Z,3.20
2018-12-22T11:38:26.265Z,3.23
2018-12-22T11:40:54.911Z,3.53
2018-12-22T11:43:23.290Z,3.25
2018-12-22T11:45:52.261Z,4.72
2018-12-22T11:49:02.799Z,3.85
2018-12-22T11:51:31.226Z,4.30
2018-12-22T11:53:59.618Z,3.75
2018-12-22T11:56:28.037Z,3.95
2018-12-22T11:58:56.438Z,4.35
2018-12-22T12:01:24.824Z,2.30
2018-12-22T12:03:53.178Z,2.98
2018-12-22T12:06:21.640Z,3.70
2018-12-22T12:08:50.009Z,5.40
2018-12-22T12:11:18.450Z,3.33
2018-12-22T12:13:46.868Z,4.07
2018-12-22T12:16:39.223Z,2.92
2018-12-22T12:19:14.629Z,5.15
2018-12-22T12:21:42.997Z,4.20
2018-12-22T12:24:11.653Z,3.20
2018-12-22T12:26:40.043Z,4.23
2018-12-22T12:29:08.474Z,5.75
2018-12-22T12:31:37.106Z,4.10
2018-12-22T12:34:05.495Z,3.50
2018-12-22T12:36:33.971Z,3.93
2018-12-22T12:39:02.594Z,3.97
2018-12-22T12:41:30.978Z,2.20
2018-12-22T12:43:59.388Z,2.62
2018-12-22T12:46:34.545Z,3.50
2018-12-22T12:49:03.777Z,4.80
2018-12-22T12:51:32.156Z,4.00
2018-12-22T12:54:00.556Z,3.67
2018-12-22T12:56:29.817Z,4.10
2018-12-22T12:58:58.193Z,4.58
2018-12-22T13:01:26.931Z,4.00
2018-12-22T13:03:55.615Z,2.92
2018-12-22T13:06:24.084Z,3.83
2018-12-22T13:08:52.672Z,5.25
2018-12-22T13:11:21.022Z,3.70
2018-12-22T13:13:54.387Z,4.28
2018-12-22T13:16:22.812Z,3.73
2018-12-22T13:18:51.176Z,5.53
2018-12-22T13:21:19.850Z,7.28
2018-12-22T13:23:48.267Z,4.73
2018-12-22T13:26:16.797Z,6.90
2018-12-22T13:28:45.184Z,4.20
2018-12-22T13:31:14.894Z,4.57
2018-12-22T13:33:43.253Z,5.12
2018-12-22T13:36:11.676Z,4.93
2018-12-22T13:38:48.576Z,4.13
2018-12-22T13:41:16.951Z,3.37
2018-12-22T13:43:45.340Z,3.67
2018-12-22T13:46:13.842Z,4.30
2018-12-22T13:48:42.479Z,3.83
2018-12-22T13:51:11.230Z,5.90
2018-12-22T13:53:39.724Z,3.13
2018-12-22T13:56:08.107Z,4.37
2018-12-22T13:58:36.502Z,3.75
2018-12-22T14:01:08.048Z,4.72
2018-12-22T14:03:39.060Z,4.30
2018-12-22T14:06:12.891Z,4.73
2018-12-22T14:08:41.342Z,4.55
2018-12-22T14:11:09.796Z,4.75
2018-12-22T14:13:38.181Z,4.17
2018-12-22T14:16:15.152Z,5.45
2018-12-22T14:18:56.729Z,5.10
2018-12-22T14:21:25.310Z,9.25
2018-12-22T14:24:05.620Z,5.25
2018-12-22T14:26:34.198Z,4.97
2018-12-22T14:29:02.551Z,5.20
2018-12-22T14:31:30.970Z,5.50
2018-12-22T14:34:03.497Z,5.28
2018-12-22T14:36:32.011Z,4.95
2018-12-22T14:39:00.499Z,5.28
2018-12-22T14:41:28.898Z,5.03
2018-12-22T14:43:57.261Z,4.83
2018-12-22T14:46:26.125Z,5.40
2018-12-22T14:48:54.526Z,5.00
2018-12-22T14:51:22.907Z,4.90
2018-12-22T14:53:51.410Z,4.62
2018-12-22T14:56:20.891Z,6.33
2018-12-22T14:58:49.260Z,5.03
2018-12-22T15:01:17.612Z,4.58
2018-12-22T15:03:46.016Z,5.00
2018-12-22T15:06:14.413Z,4.83
2018-12-22T15:08:42.798Z,4.80
2018-12-22T15:11:11.768Z,5.78
2018-12-22T15:13:40.143Z,5.00
2018-12-22T15:16:08.924Z,5.83
2018-12-22T15:18:37.332Z,5.25
2018-12-22T15:21:05.875Z,5.42
2018-12-22T15:23:34.262Z,6.08
2018-12-22T15:26:02.653Z,4.58
2018-12-22T15:28:31.307Z,6.37
2018-12-22T15:30:59.812Z,4.47
2018-12-22T15:33:28.472Z,6.55
2018-12-22T15:35:56.828Z,4.58
2018-12-22T15:38:26.099Z,4.35
2018-12-22T15:40:54.493Z,4.80
2018-12-22T15:43:23.070Z,5.22
2018-12-22T15:45:51.438Z,5.30
2018-12-22T15:48:19.839Z,5.03
2018-12-22T15:50:48.673Z,5.00
2018-12-22T15:53:17.532Z,5.35
2018-12-22T15:55:45.946Z,6.60
2018-12-22T15:58:14.331Z,4.90
2018-12-22T16:00:42.710Z,3.95
2018-12-22T16:03:11.105Z,4.90
2018-12-22T16:05:39.477Z,4.90
2018-12-22T16:08:08.200Z,6.37
2018-12-22T16:10:36.663Z,5.22
2018-12-22T16:13:06.020Z,4.95
2018-12-22T16:15:34.409Z,5.10
2018-12-22T16:18:02.826Z,5.95
2018-12-22T16:20:32.792Z,5.15
2018-12-22T16:23:02.959Z,7.53
2018-12-22T16:25:31.627Z,5.95
2018-12-22T16:28:11.225Z,5.83
2018-12-22T16:30:44.205Z,7.10
2018-12-22T16:33:12.631Z,6.03
2018-12-22T16:35:41.002Z,6.10
2018-12-22T16:38:09.668Z,8.55
2018-12-22T16:40:38.179Z,7.05
2018-12-22T16:43:09.473Z,7.05
2018-12-22T16:45:40.673Z,6.15
2018-12-22T16:48:09.420Z,6.05
2018-12-22T16:50:39.154Z,7.05
2018-12-22T16:53:07.646Z,8.08
2018-12-22T16:55:36.265Z,5.70
2018-12-22T16:58:11.657Z,6.85
2018-12-22T17:00:48.259Z,5.20
2018-12-22T17:03:16.614Z,7.05
2018-12-22T17:05:45.156Z,7.03
2018-12-22T17:08:13.862Z,6.95
2018-12-22T17:10:46.865Z,6.45
2018-12-22T17:13:18.082Z,6.45
2018-12-22T17:15:52.542Z,7.20
2018-12-22T17:18:20.907Z,6.92
2018-12-22T17:20:53.244Z,7.10
2018-12-22T17:23:55.995Z,9.13
2018-12-22T17:26:26.889Z,7.33
2018-12-22T17:28:55.259Z,7.72
2018-12-22T17:31:23.874Z,8.13
2018-12-22T17:33:52.357Z,7.10
2018-12-22T17:36:20.728Z,6.37
2018-12-22T17:38:49.098Z,7.20
2018-12-22T17:41:17.565Z,8.65
2018-12-22T17:43:47.431Z,6.17
2018-12-22T17:46:16.075Z,8.33
2018-12-22T17:48:44.792Z,8.75
2018-12-22T17:51:13.459Z,7.28
2018-12-22T17:53:41.936Z,8.23
2018-12-22T17:56:10.938Z,6.62
2018-12-22T17:58:39.536Z,6.72
2018-12-22T18:01:07.948Z,6.72
2018-12-22T18:03:37.961Z,6.97
2018-12-22T18:06:06.343Z,6.90
2018-12-22T18:08:34.744Z,6.95
2018-12-22T18:11:03.159Z,9.58
2018-12-22T18:13:31.528Z,7.35
2018-12-22T18:15:59.873Z,6.22
2018-12-22T18:18:28.344Z,6.30
2018-12-22T18:20:56.778Z,6.20
2018-12-22T18:23:25.240Z,6.30
2018-12-22T18:25:53.831Z,6.20
2018-12-22T18:28:22.184Z,4.90
2018-12-22T18:30:50.595Z,6.05
2018-12-22T18:33:19.022Z,7.17
2018-12-22T18:35:47.400Z,8.10
2018-12-22T18:38:15.764Z,5.92
2018-12-22T18:40:44.180Z,4.40
2018-12-22T18:43:12.532Z,6.55
2018-12-22T18:45:40.898Z,7.78
2018-12-22T18:48:09.519Z,6.70
2018-12-22T18:50:37.878Z,5.47
2018-12-22T18:53:06.253Z,5.62
2018-12-22T18:55:34.627Z,4.53
2018-12-22T18:58:04.693Z,4.90
2018-12-22T19:00:33.379Z,3.92
2018-12-22T19:03:01.888Z,3.17
2018-12-22T19:05:30.261Z,4.90
2018-12-22T19:08:02.777Z,5.33
2018-12-22T19:10:45.927Z,4.90
2018-12-22T19:13:14.350Z,5.40
2018-12-22T19:15:42.714Z,4.85
2018-12-22T19:18:11.363Z,4.97
2018-12-22T19:20:47.741Z,4.37
2018-12-22T19:23:16.665Z,6.10
2018-12-22T19:25:45.289Z,5.60
2018-12-22T19:28:14.146Z,5.65
2018-12-22T19:30:44.471Z,6.05
2018-12-22T19:33:12.936Z,5.92
2018-12-22T19:35:41.367Z,4.80
2018-12-22T19:38:09.745Z,5.15
2018-12-22T19:40:38.134Z,7.85
2018-12-22T19:43:06.524Z,7.12
2018-12-22T19:45:35.499Z,6.10
2018-12-22T19:48:03.879Z,6.35
2018-12-22T19:50:32.288Z,5.33
2018-12-22T19:53:00.968Z,4.15
2018-12-22T19:55:29.333Z,3.40
2018-12-22T19:57:57.776Z,4.72
2018-12-22T20:00:26.141Z,5.30
2018-12-22T20:02:54.804Z,4.85
2018-12-22T20:05:23.840Z,5.00
2018-12-22T20:07:52.225Z,3.67
2018-12-22T20:10:20.853Z,16.12
2018-12-22T20:12:49.244Z,5.60
2018-12-22T20:15:17.669Z,8.68
2018-12-22T20:17:46.351Z,9.25
2018-12-22T20:20:14.866Z,10.43
2018-12-22T20:22:43.328Z,6.70
2018-12-22T20:25:12.106Z,6.50
2018-12-22T20:27:40.506Z,8.48
2018-12-22T20:30:09.479Z,7.25
2018-12-22T20:32:38.098Z,10.32
2018-12-22T20:35:06.863Z,14.10
2018-12-22T20:37:35.236Z,12.95
2018-12-22T20:40:03.871Z,15.35
2018-12-22T20:42:32.255Z,9.15
2018-12-22T20:45:00.604Z,6.65
2018-12-22T20:47:29.191Z,7.45
2018-12-22T20:49:57.719Z,7.45
2018-12-22T20:52:26.143Z,7.37
2018-12-22T20:54:54.791Z,6.22
2018-12-22T20:57:23.210Z,7.37
2018-12-22T20:59:51.579Z,7.58
2018-12-22T21:02:19.931Z,7.67
2018-12-22T21:04:48.531Z,6.10
2018-12-22T21:07:16.918Z,4.75
2018-12-22T21:09:45.297Z,7.55
2018-12-22T21:12:13.723Z,5.50
2018-12-22T21:14:42.084Z,6.83
2018-12-22T21:17:10.752Z,8.25
2018-12-22T21:19:39.158Z,6.40
2018-12-22T21:22:07.502Z,6.30
2018-12-22T21:24:35.949Z,7.28
2018-12-22T21:27:04.353Z,8.33
2018-12-22T21:29:32.749Z,10.48
2018-12-22T21:32:01.259Z,7.35
2018-12-22T21:34:29.640Z,7.58
2018-12-22T21:36:58.013Z,7.35
2018-12-22T21:39:26.377Z,6.95
2018-12-22T21:41:54.772Z,9.03
2018-12-22T21:44:24.157Z,7.05
2018-12-22T21:46:52.568Z,6.08
2018-12-22T21:49:20.959Z,6.45
2018-12-22T21:51:49.631Z,7.35
2018-12-22T21:54:18.363Z,8.08
2018-12-22T21:56:46.768Z,6.95
2018-12-22T21:59:15.456Z,8.50
2018-12-22T22:01:44.054Z,8.63
2018-12-22T22:04:12.471Z,7.90
2018-12-22T22:06:40.833Z,7.03
2018-12-22T22:09:09.195Z,8.10
2018-12-22T22:11:37.622Z,5.20
2018-12-22T22:14:06.005Z,8.63
2018-12-22T22:16:34.956Z,7.85
2018-12-22T22:19:03.403Z,10.20
2018-12-22T22:21:32.070Z,7.25
2018-12-22T22:24:00.553Z,8.48
2018-12-22T22:26:29.121Z,6.67
2018-12-22T22:28:57.472Z,6.62
2018-12-22T22:31:26.168Z,8.28
2018-12-22T22:33:54.622Z,7.47
2018-12-22T22:36:23.119Z,6.75
2018-12-22T22:38:51.496Z,6.80
2018-12-22T22:41:20.093Z,7.55
2018-12-22T22:43:48.474Z,9.35
2018-12-22T22:46:16.838Z,7.37
2018-12-22T22:48:45.446Z,7.62
2018-12-22T22:51:13.811Z,7.10
2018-12-22T22:53:42.238Z,6.78
2018-12-22T22:56:10.647Z,8.90
2018-12-22T22:58:39.139Z,6.60
2018-12-22T23:01:07.734Z,8.50
2018-12-22T23:03:36.774Z,6.65
2018-12-22T23:06:05.341Z,8.40
2018-12-22T23:08:33.717Z,8.95
2018-12-22T23:11:02.107Z,9.40
2018-12-22T23:13:30.461Z,8.50
2018-12-22T23:15:58.835Z,7.97
2018-12-22T23:18:27.554Z,9.85
2018-12-22T23:20:56.110Z,7.80
2018-12-22T23:23:24.498Z,10.08
2018-12-22T23:25:52.878Z,8.20
2018-12-22T23:28:21.386Z,9.23
2018-12-22T23:30:49.810Z,8.18
2018-12-22T23:33:18.356Z,8.45
2018-12-22T23:35:46.742Z,7.97
2018-12-22T23:38:15.083Z,9.48
2018-12-22T23:40:43.619Z,8.28
2018-12-22T23:43:11.976Z,9.83
2018-12-22T23:45:40.324Z,12.03
2018-12-22T23:48:08.692Z,9.10
2018-12-22T23:50:37.054Z,8.10
2018-12-22T23:53:05.770Z,10.68
2018-12-22T23:55:34.197Z,7.10
2018-12-22T23:58:02.552Z,9.95
